Big Bear Station Historical Data
Daily Summary for February 14, 2019 Units:  Both    English   Metric
Next Day »
Daily Weekly Monthly Yearly Custom
  High: Low: Average:
Temperature: 43.5 °F /  6.4 °C 34.7 °F /  1.5 °C 41 °F /  5 °C
Dew Point: 43.2 °F /  6.2 °C 34.2 °F /  1.2 °C 40.7 °F /  4.8 °C
Humidity: 99% 97% 99%
Wind Speed: 14.0mph /  22.5km/h - 4.3mph /  6.9km/h
Wind Gust: 25.8mph /  41.5km/h - -
Wind- - SW
Pressure: 23.35 in /  790.6 hPa 23.16 in /  784.2 hPa -
Precipitation: 6.21 in /  157.73 mm    
Historical Graphs
 
 
Tabular Data for February 14, 2019
Time Temperature Dew Point Pressure Wind Wind Speed Wind Gust Humidity Rainfall Rate (Hourly)
00:12 39.0 °F /  3.9 °C 38.7 °F /  3.7 °C 23.35in /  790.6hPa Calm   -999.0mph /  -1607.7km/h 99% 0.00in /  0mm
00:27 39.4 °F /  4.1 °C 39.1 °F /  3.9 °C 23.34in /  790.3hPa Calm   -999.0mph /  -1607.7km/h 99% 0.00in /  0mm
00:42 39.4 °F /  4.1 °C 39.1 °F /  3.9 °C 23.35in /  790.6hPa Calm   -999.0mph /  -1607.7km/h 99% 0.00in /  0mm
00:57 39.4 °F /  4.1 °C 39.1 °F /  3.9 °C 23.34in /  790.3hPa Calm   -999.0mph /  -1607.7km/h 99% 0.00in /  0mm
01:13 39.6 °F /  4.2 °C 39.3 °F /  4.1 °C 23.34in /  790.3hPa Calm   -999.0mph /  -1607.7km/h 99% 0.00in /  0mm
01:28 39.4 °F /  4.1 °C 39.1 °F /  3.9 °C 23.35in /  790.6hPa Calm   -999.0mph /  -1607.7km/h 99% 0.00in /  0mm
01:43 39.7 °F /  4.3 °C 39.4 °F /  4.1 °C 23.35in /  790.6hPa South 3.2mph /  5.1km/h -999.0mph /  -1607.7km/h 99% 0.00in /  0mm
01:58 40.3 °F /  4.6 °C 40.0 °F /  4.4 °C 23.33in /  790hPa South 3.7mph /  6km/h -999.0mph /  -1607.7km/h 99% 0.00in /  0mm
02:14 40.6 °F /  4.8 °C 40.3 °F /  4.6 °C 23.32in /  789.6hPa SSW 5.8mph /  9.3km/h -999.0mph /  -1607.7km/h 99% 0.00in /  0mm
02:29 41.2 °F /  5.1 °C 40.9 °F /  4.9 °C 23.31in /  789.3hPa South 2.2mph /  3.5km/h -999.0mph /  -1607.7km/h 99% 0.00in /  0mm
02:44 41.4 °F /  5.2 °C 41.1 °F /  5.1 °C 23.29in /  788.6hPa North 2.2mph /  3.5km/h -999.0mph /  -1607.7km/h 99% 0.00in /  0mm
03:00 42.1 °F /  5.6 °C 41.8 °F /  5.4 °C 23.30in /  788.9hPa Calm   -999.0mph /  -1607.7km/h 99% 0.00in /  0mm
03:15 42.1 °F /  5.6 °C 41.8 °F /  5.4 °C 23.29in /  788.6hPa WNW 5.3mph /  8.5km/h -999.0mph /  -1607.7km/h 99% 0.00in /  0mm
03:30 41.7 °F /  5.4 °C 41.4 °F /  5.2 °C 23.28in /  788.3hPa WNW 3.2mph /  5.1km/h -999.0mph /  -1607.7km/h 99% 0.00in /  0mm
03:46 41.5 °F /  5.3 °C 41.2 °F /  5.1 °C 23.28in /  788.3hPa NNW 4.7mph /  7.6km/h -999.0mph /  -1607.7km/h 99% 0.00in /  0mm
04:01 41.9 °F /  5.5 °C 41.6 °F /  5.3 °C 23.29in /  788.6hPa SSW 7.8mph /  12.6km/h -999.0mph /  -1607.7km/h 99% 0.00in /  0mm
04:17 41.5 °F /  5.3 °C 41.2 °F /  5.1 °C 23.29in /  788.6hPa SW 2.2mph /  3.5km/h -999.0mph /  -1607.7km/h 99% 0.00in /  0mm
04:32 41.5 °F /  5.3 °C 41.2 °F /  5.1 °C 23.27in /  787.9hPa SSW 2.7mph /  4.3km/h -999.0mph /  -1607.7km/h 99% 0.00in /  0mm
04:47 41.7 °F /  5.4 °C 41.4 °F /  5.2 °C 23.28in /  788.3hPa WSW 10.9mph /  17.5km/h -999.0mph /  -1607.7km/h 99% 0.00in /  0mm
05:02 41.2 °F /  5.1 °C 40.9 °F /  4.9 °C 23.28in /  788.3hPa SSE 3.7mph /  6km/h -999.0mph /  -1607.7km/h 99% 0.00in /  0mm
05:18 41.5 °F /  5.3 °C 41.2 °F /  5.1 °C 23.27in /  787.9hPa SE 4.7mph /  7.6km/h -999.0mph /  -1607.7km/h 99% 0.00in /  0mm
05:33 41.4 °F /  5.2 °C 41.1 °F /  5.1 °C 23.26in /  787.6hPa NNW 3.7mph /  6km/h -999.0mph /  -1607.7km/h 99% 0.00in /  0mm
05:49 41.4 °F /  5.2 °C 41.1 °F /  5.1 °C 23.27in /  787.9hPa NNW 9.9mph /  15.9km/h -999.0mph /  -1607.7km/h 99% 0.00in /  0mm
06:04 42.8 °F /  6 °C 42.5 °F /  5.8 °C 23.24in /  786.9hPa Calm   -999.0mph /  -1607.7km/h 99% 0.00in /  0mm
06:19 43.2 °F /  6.2 °C 42.9 °F /  6.1 °C 23.23in /  786.6hPa SW 4.2mph /  6.8km/h 18.1mph /  29.1km/h 99% 0.00in /  0mm
06:34 43.0 °F /  6.1 °C 42.7 °F /  5.9 °C 23.23in /  786.6hPa East 7.3mph /  11.7km/h -999.0mph /  -1607.7km/h 99% 0.00in /  0mm
06:50 42.1 °F /  5.6 °C 41.8 °F /  5.4 °C 23.24in /  786.9hPa NNW 3.7mph /  6km/h -999.0mph /  -1607.7km/h 99% 0.00in /  0mm
07:05 41.5 °F /  5.3 °C 41.2 °F /  5.1 °C 23.25in /  787.2hPa SE 7.3mph /  11.7km/h -999.0mph /  -1607.7km/h 99% 0.00in /  0mm
07:20 41.4 °F /  5.2 °C 41.1 °F /  5.1 °C 23.25in /  787.2hPa West 6.3mph /  10.1km/h -999.0mph /  -1607.7km/h 99% 0.00in /  0mm
07:35 41.7 °F /  5.4 °C 41.4 °F /  5.2 °C 23.25in /  787.2hPa SSE 5.3mph /  8.5km/h -999.0mph /  -1607.7km/h 99% 0.00in /  0mm
07:51 41.4 °F /  5.2 °C 41.1 °F /  5.1 °C 23.25in /  787.2hPa South 10.4mph /  16.7km/h -999.0mph /  -1607.7km/h 99% 0.00in /  0mm
08:06 41.2 °F /  5.1 °C 40.9 °F /  4.9 °C 23.25in /  787.2hPa West 4.2mph /  6.8km/h -999.0mph /  -1607.7km/h 99% 0.00in /  0mm
08:21 41.5 °F /  5.3 °C 41.2 °F /  5.1 °C 23.25in /  787.2hPa SSE 4.2mph /  6.8km/h -999.0mph /  -1607.7km/h 99% 0.00in /  0mm
08:36 42.6 °F /  5.9 °C 42.3 °F /  5.7 °C 23.25in /  787.2hPa SSW 6.3mph /  10.1km/h -999.0mph /  -1607.7km/h 99% 0.00in /  0mm
08:52 42.1 °F /  5.6 °C 41.8 °F /  5.4 °C 23.25in /  787.2hPa ESE 2.2mph /  3.5km/h -999.0mph /  -1607.7km/h 99% 0.00in /  0mm
09:07 43.5 °F /  6.4 °C 43.2 °F /  6.2 °C 23.24in /  786.9hPa South 2.7mph /  4.3km/h 25.8mph /  41.5km/h 99% 0.00in /  0mm
09:22 43.3 °F /  6.3 °C 43.0 °F /  6.1 °C 23.24in /  786.9hPa South 4.7mph /  7.6km/h 19.7mph /  31.7km/h 99% 0.00in /  0mm
09:38 43.0 °F /  6.1 °C 42.7 °F /  5.9 °C 23.25in /  787.2hPa SSE 2.2mph /  3.5km/h -999.0mph /  -1607.7km/h 99% 0.00in /  0mm
09:53 42.6 °F /  5.9 °C 42.3 °F /  5.7 °C 23.25in /  787.2hPa North 4.2mph /  6.8km/h -999.0mph /  -1607.7km/h 99% 0.00in /  0mm
10:08 42.6 °F /  5.9 °C 42.3 °F /  5.7 °C 23.24in /  786.9hPa SE 2.2mph /  3.5km/h -999.0mph /  -1607.7km/h 99% 0.00in /  0mm
10:23 42.1 °F /  5.6 °C 41.8 °F /  5.4 °C 23.25in /  787.2hPa ESE 3.7mph /  6km/h -999.0mph /  -1607.7km/h 99% 0.00in /  0mm
10:39 41.9 °F /  5.5 °C 41.6 °F /  5.3 °C 23.23in /  786.6hPa WNW 5.8mph /  9.3km/h -999.0mph /  -1607.7km/h 99% 0.00in /  0mm
10:54 41.5 °F /  5.3 °C 41.0 °F /  5 °C 23.24in /  786.9hPa WNW 6.3mph /  10.1km/h 20.7mph /  33.3km/h 98% 0.00in /  0mm
13:45 37.6 °F /  3.1 °C 36.8 °F /  2.7 °C 23.18in /  784.9hPa West 3.2mph /  5.1km/h -999.0mph /  -1607.7km/h 97% 0.00in /  0mm
14:01 36.9 °F /  2.7 °C 36.4 °F /  2.4 °C 23.18in /  784.9hPa ENE 6.8mph /  10.9km/h 18.6mph /  29.9km/h 98% 0.00in /  0mm
14:16 35.8 °F /  2.1 °C 35.3 °F /  1.8 °C 23.16in /  784.2hPa North 14.0mph /  22.5km/h -999.0mph /  -1607.7km/h 98% 0.00in /  0mm
14:32 34.7 °F /  1.5 °C 34.2 °F /  1.2 °C 23.17in /  784.5hPa SSE 6.8mph /  10.9km/h -999.0mph /  -1607.7km/h 98% 0.00in /  0mm
Big Bear CA Weather